Time;durP1;ratioP1;P1;durP2;ratioP2;P2;SDS_P1;SDS_P2;PMS_P1;PMS_P2;Temp;Humidity;BMP_temperature;BMP_pressure;BME280_temperature;BME280_humidity;BME280_pressure;Samples;Min_cycle;Max_cycle;Signal;HPM_P1;HPM_P2
2022/03/29 00:02:07;;;;;;;21.60;10.93;;;;;;;10.27;62.18;100032.91;5115724;28;20043;-76
2022/03/29 00:04:36;;;;;;;19.08;11.48;;;;;;;10.27;62.33;100024.06;5115991;28;20075;-76
2022/03/29 00:07:04;;;;;;;19.83;11.10;;;;;;;10.27;62.17;100021.38;5115816;28;20046;-76
2022/03/29 00:09:34;;;;;;;20.27;11.15;;;;;;;10.36;62.20;100019.97;5115572;28;20058;-73
2022/03/29 00:12:02;;;;;;;19.98;11.70;;;;;;;10.38;61.98;100010.03;5115482;28;20090;-77
2022/03/29 00:14:31;;;;;;;20.73;11.68;;;;;;;10.36;62.10;100011.97;5115769;28;20046;-77
2022/03/29 00:16:59;;;;;;;18.35;11.55;;;;;;;10.37;61.87;100005.66;5115174;28;20070;-76
2022/03/29 00:19:28;;;;;;;20.95;11.02;;;;;;;10.30;61.83;100003.38;5115528;28;20075;-76
2022/03/29 00:21:56;;;;;;;19.00;11.30;;;;;;;10.34;61.94;99997.88;5115340;28;20067;-76
2022/03/29 00:24:24;;;;;;;18.15;10.63;;;;;;;10.37;61.54;100001.19;5115515;28;20147;-76
2022/03/29 00:26:54;;;;;;;20.83;10.98;;;;;;;10.24;61.91;99995.78;5115214;28;20093;-77
2022/03/29 00:29:23;;;;;;;20.58;11.23;;;;;;;10.19;62.31;100000.50;5115649;28;20040;-76
2022/03/29 00:31:53;;;;;;;19.23;11.00;;;;;;;10.20;62.03;99990.69;5114910;28;20044;-77
2022/03/29 00:34:21;;;;;;;18.63;11.13;;;;;;;10.15;62.09;99985.66;5115390;28;20063;-74
2022/03/29 00:36:50;;;;;;;17.13;11.48;;;;;;;10.11;62.09;99978.78;5115215;28;20130;-75
2022/03/29 00:39:18;;;;;;;21.05;11.40;;;;;;;10.08;62.13;99976.34;5115607;28;20441;-73
2022/03/29 00:41:47;;;;;;;18.42;11.13;;;;;;;10.14;61.64;99969.78;5114670;28;20118;-73
2022/03/29 00:44:16;;;;;;;21.15;10.90;;;;;;;10.17;61.47;99970.44;5115237;28;20040;-74
2022/03/29 00:46:47;;;;;;;20.25;10.88;;;;;;;10.12;61.58;99969.84;5114160;28;20039;-75
2022/03/29 00:49:15;;;;;;;19.17;11.30;;;;;;;10.16;61.17;99967.88;5115334;28;20127;-75
2022/03/29 00:51:43;;;;;;;18.98;11.18;;;;;;;9.99;61.94;99967.09;5114670;28;20047;-75
2022/03/29 00:54:13;;;;;;;19.08;11.45;;;;;;;9.83;62.18;99952.16;5115106;28;20116;-76
2022/03/29 00:56:41;;;;;;;18.65;10.13;;;;;;;9.83;62.35;99960.16;5114731;28;20066;-75
2022/03/29 00:59:11;;;;;;;17.73;10.25;;;;;;;9.79;62.53;99958.63;5114342;28;20040;-78
2022/03/29 01:01:40;;;;;;;20.73;10.95;;;;;;;9.80;61.93;99952.34;5114736;28;20050;-78
2022/03/29 01:04:09;;;;;;;18.20;10.55;;;;;;;9.69;62.44;99953.88;5114562;28;20369;-79
2022/03/29 01:06:38;;;;;;;20.50;11.00;;;;;;;9.58;62.96;99950.16;5114647;28;20047;-78
2022/03/29 01:09:07;;;;;;;22.25;10.95;;;;;;;9.58;62.83;99935.03;5114465;28;20039;-78
2022/03/29 01:11:36;;;;;;;20.92;10.27;;;;;;;9.53;63.11;99936.25;5114396;28;20070;-81
2022/03/29 01:14:05;;;;;;;16.40;9.90;;;;;;;9.52;63.07;99935.41;5114050;28;20039;-76
2022/03/29 01:19:22;;;;;;;18.50;10.55;;;;;;;9.69;61.96;99927.25;5114824;28;20092;-76
2022/03/29 01:21:57;;;;;;;18.38;10.00;;;;;;;9.55;62.33;99919.22;5114049;28;20036;-77
2022/03/29 01:24:25;;;;;;;18.25;10.23;;;;;;;9.53;62.54;99921.13;5114013;28;20051;-76
2022/03/29 01:26:57;;;;;;;18.25;10.70;;;;;;;9.45;62.68;99921.59;5114003;28;20067;-76
2022/03/29 01:29:25;;;;;;;19.40;10.52;;;;;;;9.38;63.04;99916.75;5114394;28;20370;-76
2022/03/29 01:31:54;;;;;;;16.50;10.35;;;;;;;9.38;63.12;99928.25;5113534;28;20485;-75
2022/03/29 01:34:23;;;;;;;19.05;11.23;;;;;;;9.31;63.48;99915.41;5113970;28;20048;-75
2022/03/29 01:36:51;;;;;;;25.50;10.57;;;;;;;9.23;63.75;99920.31;5113900;28;20047;-75
2022/03/29 01:39:21;;;;;;;20.42;11.23;;;;;;;9.26;63.73;99922.78;5114264;28;20035;-75
2022/03/29 01:41:49;;;;;;;17.88;11.50;;;;;;;9.26;63.67;99918.31;5114058;28;20040;-76
2022/03/29 01:44:18;;;;;;;21.60;10.25;;;;;;;9.37;63.30;99917.72;5114079;28;20040;-75
2022/03/29 01:46:46;;;;;;;23.15;10.18;;;;;;;9.40;62.92;99921.03;5113983;28;20484;-75
2022/03/29 01:49:14;;;;;;;24.15;11.05;;;;;;;9.37;62.73;99904.41;5113672;28;20142;-75
2022/03/29 01:51:45;;;;;;;20.27;11.13;;;;;;;9.31;62.34;99894.09;5114056;28;20047;-75
2022/03/29 01:54:13;;;;;;;18.95;10.10;;;;;;;9.34;61.96;99877.94;5113544;28;20119;-75
2022/03/29 01:56:43;;;;;;;22.45;10.65;;;;;;;9.14;62.85;99877.34;5113594;28;20428;-76
2022/03/29 01:59:12;;;;;;;25.58;10.70;;;;;;;9.11;63.23;99872.22;5113310;28;20067;-75
2022/03/29 02:01:41;;;;;;;18.05;10.20;;;;;;;9.06;63.91;99876.09;5113590;28;20075;-74
2022/03/29 02:04:13;;;;;;;19.92;10.18;;;;;;;9.01;63.80;99871.06;5113541;28;20046;-74
2022/03/29 02:06:42;;;;;;;23.48;11.15;;;;;;;9.22;63.15;99884.03;5113385;28;20050;-74
2022/03/29 02:09:11;;;;;;;23.95;11.15;;;;;;;9.04;63.80;99875.34;5113377;28;20127;-74
2022/03/29 02:11:43;;;;;;;22.55;10.88;;;;;;;9.09;64.27;99873.25;5113768;28;20054;-74
2022/03/29 02:14:11;;;;;;;19.83;10.30;;;;;;;9.02;63.94;99872.78;5113755;28;20048;-74
2022/03/29 02:16:40;;;;;;;24.67;10.70;;;;;;;9.09;64.23;99870.59;5113592;28;20577;-74
2022/03/29 02:19:08;;;;;;;17.77;11.10;;;;;;;9.17;64.07;99863.03;5113321;28;20446;-73
2022/03/29 02:21:36;;;;;;;20.02;11.23;;;;;;;9.25;63.66;99857.22;5113289;28;20096;-74
2022/03/29 02:24:05;;;;;;;20.52;11.48;;;;;;;9.30;63.25;99849.81;5112929;28;20221;-75
2022/03/29 02:26:33;;;;;;;19.48;11.35;;;;;;;9.34;63.67;99844.19;5113091;28;20040;-71
2022/03/29 02:29:03;;;;;;;23.52;11.07;;;;;;;9.33;63.56;99849.63;5113215;28;20097;-71
2022/03/29 02:31:31;;;;;;;21.45;11.57;;;;;;;9.36;63.94;99852.09;5113631;28;20039;-71
2022/03/29 02:34:00;;;;;;;23.45;11.18;;;;;;;9.35;64.10;99842.38;5113060;28;20048;-71
2022/03/29 02:36:28;;;;;;;24.13;11.13;;;;;;;9.30;64.14;99847.16;5113371;28;20044;-71
2022/03/29 02:38:56;;;;;;;23.27;10.98;;;;;;;9.25;64.16;99846.56;5113334;28;20085;-72
2022/03/29 02:41:24;;;;;;;24.20;10.75;;;;;;;9.22;64.15;99844.09;5113254;28;20050;-71
2022/03/29 02:43:53;;;;;;;30.75;12.00;;;;;;;9.08;64.82;99843.16;5113248;28;20035;-71
2022/03/29 02:46:22;;;;;;;29.92;11.90;;;;;;;9.03;64.55;99845.22;5112984;28;20039;-71
2022/03/29 02:48:51;;;;;;;32.72;12.05;;;;;;;8.95;64.77;99844.81;5113148;28;20093;-71
2022/03/29 02:51:19;;;;;;;29.13;12.40;;;;;;;8.86;64.95;99850.69;5113209;28;20051;-77
2022/03/29 02:53:47;;;;;;;32.08;11.75;;;;;;;8.86;65.10;99843.56;5113350;28;20040;-78
2022/03/29 02:56:16;;;;;;;34.67;11.77;;;;;;;8.90;64.88;99841.59;5112586;28;20075;-78
2022/03/29 02:58:44;;;;;;;29.08;12.15;;;;;;;8.85;65.10;99833.00;5113136;28;20051;-78
2022/03/29 03:01:12;;;;;;;26.38;12.27;;;;;;;8.76;64.92;99838.88;5112940;28;20031;-78
2022/03/29 03:03:42;;;;;;;24.45;11.48;;;;;;;8.69;65.28;99835.75;5113241;28;20047;-76
2022/03/29 03:06:11;;;;;;;26.83;12.23;;;;;;;8.68;65.57;99831.34;5112451;28;20036;-76
2022/03/29 03:08:39;;;;;;;26.60;12.20;;;;;;;8.63;65.67;99837.91;5113074;28;20048;-76
2022/03/29 03:11:07;;;;;;;23.40;12.00;;;;;;;8.61;65.45;99835.34;5115053;28;20088;-75
2022/03/29 03:13:36;;;;;;;26.13;12.38;;;;;;;8.50;65.75;99833.31;5117093;28;20392;-76
2022/03/29 03:16:05;;;;;;;24.02;12.45;;;;;;;8.48;65.92;99829.84;5116339;28;20152;-76
2022/03/29 03:18:34;;;;;;;22.00;11.25;;;;;;;8.51;66.04;99832.34;5117001;28;20054;-74
2022/03/29 03:21:06;;;;;;;24.83;12.45;;;;;;;8.48;65.98;99829.00;5116329;28;20043;-76
2022/03/29 03:23:34;;;;;;;22.95;12.10;;;;;;;8.46;66.19;99829.09;5116483;28;20058;-76
2022/03/29 03:26:02;;;;;;;23.70;12.82;;;;;;;8.42;66.52;99827.56;5116232;28;20040;-77
2022/03/29 03:28:31;;;;;;;20.88;13.23;;;;;;;8.44;66.14;99822.16;5116675;28;20044;-78
2022/03/29 03:30:59;;;;;;;23.02;13.25;;;;;;;8.50;65.86;99816.50;5116021;28;20043;-75
2022/03/29 03:33:30;;;;;;;24.30;12.27;;;;;;;8.50;66.02;99814.69;5116580;28;20511;-75
2022/03/29 03:35:58;;;;;;;19.88;12.70;;;;;;;8.63;65.75;99811.31;5116413;28;20050;-76
2022/03/29 03:38:27;;;;;;;22.73;12.77;;;;;;;8.68;65.64;99817.19;5116717;28;20464;-76
2022/03/29 03:40:58;;;;;;;20.15;11.95;;;;;;;8.75;65.29;99811.44;5116271;28;20043;-76
2022/03/29 03:43:26;;;;;;;25.85;13.23;;;;;;;8.66;65.51;99814.63;5098210;28;20130;-79
2022/03/29 03:45:55;;;;;;;22.27;12.57;;;;;;;8.66;65.34;99806.66;5116314;28;20031;-78
2022/03/29 03:48:23;;;;;;;24.25;12.50;;;;;;;8.64;65.54;99808.56;5115982;28;20526;-74
2022/03/29 03:50:51;;;;;;;25.75;12.85;;;;;;;8.64;65.59;99807.69;5098342;28;20082;-74
2022/03/29 03:53:19;;;;;;;23.70;12.43;;;;;;;8.64;65.31;99805.03;5115992;28;20051;-76
2022/03/29 03:55:49;;;;;;;20.92;11.82;;;;;;;8.63;65.86;99806.84;5115985;28;20039;-77
2022/03/29 03:58:17;;;;;;;22.20;11.23;;;;;;;8.71;65.33;99803.75;5115799;28;20502;-76
2022/03/29 04:00:46;;;;;;;20.83;11.43;;;;;;;8.59;65.68;99803.53;5115852;28;20050;-76
2022/03/29 04:03:15;;;;;;;20.88;11.00;;;;;;;8.62;65.79;99804.28;5115377;28;20043;-76
2022/03/29 04:05:44;;;;;;;23.95;11.43;;;;;;;8.63;66.17;99798.03;5116248;28;20424;-80
2022/03/29 04:08:12;;;;;;;24.92;11.65;;;;;;;8.73;65.37;99801.84;5115733;28;20089;-78
2022/03/29 04:10:41;;;;;;;22.50;11.77;;;;;;;8.56;66.00;99798.38;5115985;28;20035;-79
2022/03/29 04:13:11;;;;;;;22.15;11.60;;;;;;;8.48;66.55;99792.66;5115195;28;20040;-79
2022/03/29 04:15:39;;;;;;;22.77;11.82;;;;;;;8.46;66.95;99788.38;5115692;28;20050;-78
2022/03/29 04:18:08;;;;;;;21.75;11.80;;;;;;;8.47;66.88;99790.94;5115192;28;20048;-78
2022/03/29 04:20:36;;;;;;;22.85;11.82;;;;;;;8.46;67.14;99791.03;5115753;28;20044;-78
2022/03/29 04:23:04;;;;;;;20.67;11.95;;;;;;;8.44;67.24;99790.28;5114954;28;20051;-79
2022/03/29 04:25:33;;;;;;;20.88;11.80;;;;;;;8.46;67.02;99794.53;5115655;28;20054;-74
2022/03/29 04:28:01;;;;;;;27.42;12.45;;;;;;;8.44;67.15;99791.13;5115163;28;20051;-75
2022/03/29 04:30:31;;;;;;;21.33;11.48;;;;;;;8.34;67.28;99787.25;5115461;28;20042;-74
2022/03/29 04:32:59;;;;;;;22.42;12.43;;;;;;;8.28;67.87;99784.94;5115168;28;20373;-75
2022/03/29 04:35:27;;;;;;;23.58;12.48;;;;;;;8.22;68.28;99780.00;5115274;28;20047;-76
2022/03/29 04:37:56;;;;;;;26.80;11.55;;;;;;;8.31;67.99;99790.09;5115392;28;20452;-76
2022/03/29 04:40:24;;;;;;;22.77;12.20;;;;;;;8.35;67.93;99783.69;5114979;28;20044;-77
2022/03/29 04:42:52;;;;;;;23.70;13.18;;;;;;;8.48;67.16;99786.47;5115052;28;20051;-76
2022/03/29 04:45:21;;;;;;;26.52;13.43;;;;;;;8.42;67.33;99784.19;5114601;28;20130;-78
2022/03/29 04:47:50;;;;;;;23.67;12.32;;;;;;;8.52;66.91;99772.94;5115094;28;20039;-78
2022/03/29 04:50:19;;;;;;;27.17;12.40;;;;;;;8.53;66.82;99779.94;5114816;28;20494;-76
2022/03/29 04:52:47;;;;;;;23.42;12.73;;;;;;;8.47;67.20;99774.97;5115075;28;20050;-75
2022/03/29 04:55:16;;;;;;;25.27;12.45;;;;;;;8.43;67.38;99773.47;5114515;28;20043;-76
2022/03/29 04:57:48;;;;;;;22.67;12.60;;;;;;;8.39;67.62;99774.56;5114533;28;20043;-74
2022/03/29 05:00:20;;;;;;;28.70;13.25;;;;;;;8.37;67.66;99772.97;5114327;28;20456;-75
2022/03/29 05:02:50;;;;;;;22.73;12.55;;;;;;;8.32;67.81;99773.22;5114863;28;20050;-73
2022/03/29 05:05:19;;;;;;;26.45;13.90;;;;;;;8.41;67.55;99769.19;5114413;28;20039;-75
2022/03/29 05:07:47;;;;;;;29.20;14.00;;;;;;;8.44;67.22;99766.34;5114174;28;20043;-75
2022/03/29 05:10:16;;;;;;;31.13;13.95;;;;;;;8.57;65.89;99768.19;5114136;28;20047;-75
2022/03/29 05:12:51;;;;;;;25.50;13.90;;;;;;;8.68;64.84;99772.00;5114691;28;20047;-76
2022/03/29 05:15:21;;;;;;;21.98;12.18;;;;;;;8.80;63.61;99768.63;5096262;28;20079;-77
2022/03/29 05:17:50;;;;;;;28.40;11.93;;;;;;;8.95;62.56;99780.97;5114284;28;20049;-78
2022/03/29 05:20:19;;;;;;;23.13;11.00;;;;;;;8.99;61.98;99773.69;5114173;28;20096;-77
2022/03/29 05:22:49;;;;;;;26.20;12.35;;;;;;;8.91;62.05;99773.28;5113702;28;20044;-80
2022/03/29 05:25:20;;;;;;;22.58;11.63;;;;;;;9.02;60.83;99776.16;5113708;28;20397;-80
2022/03/29 05:27:49;;;;;;;23.48;11.63;;;;;;;8.99;60.93;99773.69;5114037;28;20075;-81
2022/03/29 05:30:19;;;;;;;35.10;11.75;;;;;;;8.89;61.69;99771.56;5113994;28;20048;-80
2022/03/29 05:32:47;;;;;;;23.70;12.40;;;;;;;8.83;62.11;99777.25;5113299;28;20075;-82
2022/03/29 05:35:17;;;;;;;28.40;12.55;;;;;;;9.11;61.16;99776.44;5113598;28;20048;-84
2022/03/29 05:37:45;;;;;;;24.98;12.20;;;;;;;9.13;61.16;99779.84;5113677;28;20482;-81
2022/03/29 05:40:14;;;;;;;23.85;11.52;;;;;;;9.28;60.90;99783.38;5113426;28;20047;-83
2022/03/29 05:42:43;;;;;;;28.45;12.23;;;;;;;9.42;60.44;99790.50;5113662;28;20396;-82
2022/03/29 05:45:14;;;;;;;26.15;13.07;;;;;;;9.32;61.27;99781.38;5113268;28;20044;-82
2022/03/29 05:50:30;;;;;;;25.70;13.23;;;;;;;9.40;62.25;99774.63;5113341;28;20046;-79
2022/03/29 05:52:59;;;;;;;32.97;14.63;;;;;;;9.47;62.25;99785.75;5113252;28;20062;-79
2022/03/29 05:55:27;;;;;;;31.52;14.23;;;;;;;9.55;62.66;99777.25;5112761;28;20039;-79
2022/03/29 05:58:00;;;;;;;31.40;14.57;;;;;;;9.66;62.27;99780.13;5113619;28;20056;-79
2022/03/29 06:00:29;;;;;;;30.25;15.20;;;;;;;9.80;62.14;99773.88;5112937;28;20097;-79
2022/03/29 06:02:59;;;;;;;29.48;14.82;;;;;;;9.95;61.59;99767.59;5113558;28;20050;-79
2022/03/29 06:05:28;;;;;;;29.45;14.95;;;;;;;10.03;61.66;99779.41;5113108;28;20123;-79
2022/03/29 06:07:59;;;;;;;32.75;14.90;;;;;;;10.24;61.05;99768.38;5112179;28;20032;-79
2022/03/29 06:10:27;;;;;;;31.58;15.02;;;;;;;10.38;60.97;99770.09;5093539;28;20465;-79
2022/03/29 06:12:55;;;;;;;30.95;14.35;;;;;;;10.70;60.27;99760.75;5112076;28;20043;-77
2022/03/29 06:15:24;;;;;;;31.05;15.63;;;;;;;10.74;59.84;99761.44;5111860;28;20425;-75
2022/03/29 06:17:52;;;;;;;24.85;14.90;;;;;;;10.80;59.96;99767.16;5111796;28;20048;-75
2022/03/29 06:20:21;;;;;;;25.08;16.08;;;;;;;10.96;59.38;99768.78;5112007;28;20067;-76
2022/03/29 06:22:50;;;;;;;27.00;14.68;;;;;;;10.98;59.06;99764.19;5111765;28;20107;-76
2022/03/29 06:25:19;;;;;;;28.92;15.40;;;;;;;11.08;58.76;99765.25;5109452;28;20044;-76
2022/03/29 06:27:48;;;;;;;26.98;15.13;;;;;;;11.14;58.73;99770.19;5093701;28;20527;-76
2022/03/29 06:30:16;;;;;;;25.23;15.70;;;;;;;11.24;58.30;99771.25;5111464;28;20510;-76
2022/03/29 06:32:46;;;;;;;31.67;16.63;;;;;;;11.44;57.59;99773.34;5111983;28;20035;-76
2022/03/29 06:35:15;;;;;;;33.15;16.08;;;;;;;11.49;57.43;99764.19;5115408;28;20416;-79
2022/03/29 06:37:43;;;;;;;29.05;15.55;;;;;;;11.64;57.02;99760.38;5111934;28;20118;-79
2022/03/29 06:40:14;;;;;;;26.85;16.00;;;;;;;11.80;56.26;99749.47;5111622;28;20434;-78
2022/03/29 06:42:42;;;;;;;35.60;16.05;;;;;;;11.97;55.61;99755.28;5109729;28;20039;-75
2022/03/29 06:45:12;;;;;;;28.92;16.35;;;;;;;12.11;55.46;99748.91;5112463;28;20160;-76
2022/03/29 06:47:41;;;;;;;31.60;16.38;;;;;;;12.26;54.13;99744.25;5113516;28;20150;-74
2022/03/29 06:50:10;;;;;;;33.40;16.95;;;;;;;12.36;54.29;99742.59;5116092;28;20039;-74
2022/03/29 06:52:43;;;;;;;24.75;16.17;;;;;;;12.50;53.83;99739.72;5092644;28;20102;-74
2022/03/29 06:55:14;;;;;;;29.45;16.27;;;;;;;12.62;53.58;99743.25;5115591;28;20044;-76
2022/03/29 06:57:43;;;;;;;33.30;16.40;;;;;;;12.90;52.90;99744.66;5116937;28;20139;-81
2022/03/29 07:00:13;;;;;;;30.60;16.27;;;;;;;13.09;52.15;99744.94;5116749;28;20085;-78
2022/03/29 07:02:41;;;;;;;28.30;16.63;;;;;;;13.14;52.00;99745.44;5116997;28;20039;-80
2022/03/29 07:05:10;;;;;;;35.35;17.15;;;;;;;13.13;51.88;99741.06;5117015;28;20118;-76
2022/03/29 07:07:39;;;;;;;29.25;16.38;;;;;;;13.05;52.05;99738.13;5116842;28;20097;-77
2022/03/29 07:13:00;;;;;;;30.42;17.42;;;;;;;12.91;52.38;99743.69;5090508;28;20047;-76
2022/03/29 07:15:29;;;;;;;29.35;17.48;;;;;;;12.95;52.21;99736.28;5097550;28;20549;-76
2022/03/29 07:17:58;;;;;;;31.65;17.02;;;;;;;12.99;52.50;99738.59;5115582;28;20044;-76
2022/03/29 07:20:27;;;;;;;28.92;17.60;;;;;;;13.07;52.11;99732.66;5115542;28;20104;-76
2022/03/29 07:22:56;;;;;;;31.65;17.38;;;;;;;13.11;52.30;99737.63;5115635;28;20047;-76
2022/03/29 07:25:27;;;;;;;31.00;16.92;;;;;;;13.26;51.57;99727.56;5115544;28;20146;-77
2022/03/29 07:27:55;;;;;;;34.35;16.73;;;;;;;13.37;51.51;99726.72;5116007;28;20050;-76
2022/03/29 07:30:25;;;;;;;29.30;16.75;;;;;;;13.45;51.17;99727.81;5097593;28;20354;-76
2022/03/29 07:32:57;;;;;;;31.80;16.55;;;;;;;13.57;50.71;99736.69;5116313;28;20046;-76
2022/03/29 07:35:28;;;;;;;25.30;16.63;;;;;;;13.60;50.82;99732.88;5115852;28;20036;-77
2022/03/29 07:37:57;;;;;;;36.67;17.98;;;;;;;13.72;50.34;99734.59;5115790;28;20046;-76
2022/03/29 07:40:29;;;;;;;30.90;17.05;;;;;;;13.81;50.21;99728.50;5115876;28;20047;-77
2022/03/29 07:42:58;;;;;;;29.73;16.63;;;;;;;13.86;49.81;99725.41;5116302;28;20122;-76
2022/03/29 07:45:28;;;;;;;33.03;16.23;;;;;;;13.98;49.40;99724.41;5115946;28;20126;-77
2022/03/29 07:47:57;;;;;;;36.35;17.35;;;;;;;14.19;48.80;99714.59;5116135;28;20100;-76
2022/03/29 07:50:46;;;;;;;26.83;17.00;;;;;;;14.21;48.53;99718.00;5115686;28;20436;-76
2022/03/29 07:53:14;;;;;;;32.67;17.15;;;;;;;14.33;48.49;99711.59;5115599;28;20101;-76
2022/03/29 07:55:42;;;;;;;29.30;17.35;;;;;;;14.36;48.04;99715.00;5097474;28;20043;-76
2022/03/29 07:58:19;;;;;;;33.40;17.13;;;;;;;14.39;48.10;99714.75;5115829;28;20047;-77
2022/03/29 08:00:51;;;;;;;27.80;17.55;;;;;;;14.50;47.51;99718.25;5115974;28;20082;-76
2022/03/29 08:03:39;;;;;;;33.75;16.60;;;;;;;14.53;47.36;99712.63;5115577;28;20067;-76
2022/03/29 08:06:07;;;;;;;27.52;16.55;;;;;;;14.51;47.21;99703.84;5115824;28;20050;-76
2022/03/29 08:08:35;;;;;;;30.25;17.33;;;;;;;14.57;47.10;99713.19;5114972;28;20040;-77
2022/03/29 08:11:05;;;;;;;29.00;16.63;;;;;;;14.67;46.65;99711.47;5115442;28;20130;-77
2022/03/29 08:13:33;;;;;;;30.13;17.40;;;;;;;14.79;46.35;99710.41;5115308;28;20085;-77
2022/03/29 08:16:03;;;;;;;26.23;16.38;;;;;;;14.83;46.17;99708.28;5115355;28;20043;-76
2022/03/29 08:18:34;;;;;;;31.90;16.80;;;;;;;14.94;46.27;99710.88;5114901;28;20040;-76
2022/03/29 08:21:47;;;;;;;27.85;16.95;;;;;;;15.06;46.01;99701.78;5115666;28;20097;-76
2022/03/29 08:23:51;;;;;;;29.60;16.38;;;;;;;15.20;45.26;99711.31;5115461;28;20048;-77
2022/03/29 08:26:19;;;;;;;32.63;16.60;;;;;;;15.16;44.95;99697.31;5097402;28;20130;-77
2022/03/29 08:28:48;;;;;;;30.40;16.30;;;;;;;15.29;44.63;99701.59;5114886;28;20047;-77
2022/03/29 08:31:18;;;;;;;30.73;16.33;;;;;;;15.41;43.89;99701.34;5114924;28;20055;-77
2022/03/29 08:33:47;;;;;;;29.70;16.75;;;;;;;15.53;43.35;99694.00;5115160;28;20084;-77
2022/03/29 08:36:15;;;;;;;32.78;16.17;;;;;;;15.60;43.28;99697.00;5115235;28;20427;-77
2022/03/29 08:38:44;;;;;;;31.35;16.55;;;;;;;15.67;42.87;99690.13;5114819;28;20055;-77
2022/03/29 08:41:15;;;;;;;28.00;16.20;;;;;;;15.78;42.46;99689.16;5096542;28;20120;-77
2022/03/29 08:43:44;;;;;;;28.92;16.92;;;;;;;15.89;42.09;99684.50;5095984;28;20048;-76
2022/03/29 08:46:13;;;;;;;28.88;16.30;;;;;;;15.96;41.97;99684.81;5114415;28;20063;-77
2022/03/29 08:48:48;;;;;;;31.17;16.55;;;;;;;16.00;41.92;99679.00;5095918;28;20079;-76
2022/03/29 08:51:17;;;;;;;27.40;16.58;;;;;;;16.13;41.64;99677.88;5114100;28;20100;-77
2022/03/29 08:54:00;;;;;;;26.40;15.98;;;;;;;16.18;41.41;99683.69;5113439;28;20144;-77
2022/03/29 08:56:29;;;;;;;30.58;17.10;;;;;;;16.36;41.08;99671.22;5113096;28;20073;-77
2022/03/29 08:58:57;;;;;;;27.85;16.75;;;;;;;16.51;40.69;99672.47;5113615;28;20122;-77
2022/03/29 09:01:25;;;;;;;30.90;16.25;;;;;;;16.60;40.47;99670.75;5113369;28;20039;-76
2022/03/29 09:04:07;;;;;;;32.03;16.80;;;;;;;16.67;39.92;99668.31;5113948;28;20104;-77
2022/03/29 09:06:55;;;;;;;30.10;15.68;;;;;;;16.72;40.13;99674.16;5113884;28;20040;-76
2022/03/29 09:09:26;;;;;;;30.98;16.35;;;;;;;16.82;39.82;99670.44;5113187;28;20477;-77
2022/03/29 09:11:56;;;;;;;31.70;17.08;;;;;;;16.91;39.47;99662.50;5114331;28;20077;-76
2022/03/29 09:14:25;;;;;;;30.38;17.63;;;;;;;16.96;39.30;99655.66;5113814;28;20036;-76
2022/03/29 09:16:53;;;;;;;33.53;16.73;;;;;;;17.04;39.18;99649.53;5113894;28;20130;-77
2022/03/29 09:19:25;;;;;;;29.17;17.10;;;;;;;17.06;39.13;99648.38;5095913;28;20138;-76
2022/03/29 09:21:55;;;;;;;30.23;17.00;;;;;;;17.12;39.23;99645.09;5096233;28;20047;-75
2022/03/29 09:24:27;;;;;;;26.75;15.73;;;;;;;17.13;39.07;99646.78;5113919;28;20062;-77
2022/03/29 09:26:55;;;;;;;29.88;16.75;;;;;;;17.24;38.95;99643.03;5114086;28;20043;-77
2022/03/29 09:29:26;;;;;;;29.90;16.60;;;;;;;17.29;39.10;99638.06;5113897;28;20039;-77
2022/03/29 09:32:04;;;;;;;27.77;16.87;;;;;;;17.43;38.76;99634.00;5114008;28;20050;-77
2022/03/29 09:34:35;;;;;;;30.73;17.13;;;;;;;17.57;38.25;99622.72;5113571;28;20276;-77
2022/03/29 09:37:05;;;;;;;33.47;16.73;;;;;;;17.78;37.45;99624.31;5114009;28;20493;-77
2022/03/29 09:39:37;;;;;;;27.88;16.33;;;;;;;17.81;37.08;99626.69;5114001;28;20074;-77
2022/03/29 09:42:09;;;;;;;30.83;16.42;;;;;;;17.76;36.84;99619.06;5114017;28;20070;-77
2022/03/29 09:44:41;;;;;;;28.58;16.88;;;;;;;17.90;36.80;99620.38;5113533;28;20035;-77
2022/03/29 09:47:12;;;;;;;35.08;15.88;;;;;;;17.98;36.99;99612.34;5114004;28;20050;-77
2022/03/29 09:49:54;;;;;;;29.63;16.30;;;;;;;18.19;36.49;99612.88;5113554;28;20080;-77
2022/03/29 09:52:24;;;;;;;29.27;16.73;;;;;;;18.33;36.55;99610.59;5113889;28;20063;-77
2022/03/29 09:55:09;;;;;;;30.13;15.95;;;;;;;18.40;36.33;99608.97;5113404;28;20086;-77
2022/03/29 09:57:39;;;;;;;28.42;17.00;;;;;;;18.38;35.96;99605.59;5113218;28;20039;-77
2022/03/29 10:00:10;;;;;;;37.03;17.60;;;;;;;18.44;36.66;99602.28;5113661;28;20075;-77
2022/03/29 10:02:40;;;;;;;29.83;16.40;;;;;;;18.58;36.39;99596.28;5113466;28;20047;-77
2022/03/29 10:05:11;;;;;;;32.28;18.42;;;;;;;18.71;36.25;99595.88;5113735;28;20047;-77
2022/03/29 10:07:44;;;;;;;33.05;17.60;;;;;;;18.79;35.78;99583.25;5113478;28;20046;-77
2022/03/29 10:10:13;;;;;;;32.97;16.85;;;;;;;18.85;35.57;99587.19;5113370;28;20071;-77
2022/03/29 10:12:42;;;;;;;34.92;19.48;;;;;;;18.83;35.99;99576.53;5113246;28;20460;-77
2022/03/29 10:15:30;;;;;;;31.02;17.08;;;;;;;18.78;35.18;99570.75;5113019;28;20044;-77
2022/03/29 10:17:59;;;;;;;27.58;16.92;;;;;;;18.86;35.11;99573.50;5113282;28;20083;-77
2022/03/29 10:20:31;;;;;;;25.65;15.25;;;;;;;18.88;35.11;99570.63;5112573;28;20491;-77
2022/03/29 10:23:00;;;;;;;26.35;14.10;;;;;;;19.08;33.32;99560.41;5112732;28;20061;-77
2022/03/29 10:25:31;;;;;;;28.00;14.00;;;;;;;19.04;33.31;99559.06;5112462;28;20048;-77
2022/03/29 10:28:01;;;;;;;24.98;13.43;;;;;;;19.05;32.90;99552.63;5112809;28;20044;-77
2022/03/29 10:30:34;;;;;;;27.73;13.68;;;;;;;19.11;32.27;99544.72;5094243;28;20088;-77
2022/03/29 10:33:16;;;;;;;26.20;13.93;;;;;;;19.36;32.26;99532.09;5112864;28;20412;-77
2022/03/29 10:36:06;;;;;;;30.50;15.05;;;;;;;19.53;32.50;99533.00;5112704;28;20043;-77
2022/03/29 10:38:54;;;;;;;27.67;13.73;;;;;;;19.69;29.78;99527.63;5113077;28;20043;-77
2022/03/29 10:41:52;;;;;;;21.75;10.18;;;;;;;19.90;28.56;99520.88;5113169;28;20048;-76
2022/03/29 10:44:22;;;;;;;21.55;12.65;;;;;;;19.94;27.16;99519.50;5056559;28;20118;-78
2022/03/29 10:46:52;;;;;;;21.63;10.10;;;;;;;19.95;27.37;99519.34;5112517;28;20044;-76
2022/03/29 10:49:24;;;;;;;19.60;10.95;;;;;;;20.15;27.26;99509.00;5112899;28;20039;-77
2022/03/29 10:51:57;;;;;;;20.52;11.80;;;;;;;20.07;26.90;99519.81;5112678;28;20062;-77
2022/03/29 10:54:30;;;;;;;22.55;12.07;;;;;;;20.12;26.90;99511.19;5112657;28;20118;-77
2022/03/29 10:57:01;;;;;;;23.33;12.88;;;;;;;20.25;27.45;99497.97;5113288;28;20047;-77
2022/03/29 10:59:30;;;;;;;19.60;11.50;;;;;;;20.41;26.68;99508.78;5112658;28;20122;-77
2022/03/29 11:02:10;;;;;;;21.70;12.98;;;;;;;20.40;27.03;99503.53;5112862;28;20485;-77
2022/03/29 11:05:04;;;;;;;23.23;13.13;;;;;;;20.52;26.67;99497.59;5112652;28;20066;-77
2022/03/29 11:07:35;;;;;;;;;;;;;;;20.53;26.53;99498.44;5113267;28;20545;-77
2022/03/29 11:10:10;;;;;;;24.48;12.65;;;;;;;20.50;26.74;99491.50;5094759;28;19920;-77
2022/03/29 11:12:43;;;;;;;23.17;12.95;;;;;;;20.61;27.08;99484.03;5112662;28;20040;-77
2022/03/29 11:15:48;;;;;;;20.33;12.88;;;;;;;20.71;26.31;99473.81;5112854;28;20032;-77
2022/03/29 11:18:44;;;;;;;23.27;13.10;;;;;;;20.72;26.23;99460.09;5094776;28;20397;-77
2022/03/29 11:21:29;;;;;;;22.30;13.27;;;;;;;20.76;26.33;99466.03;5054500;28;20470;-77
2022/03/29 11:24:01;;;;;;;25.83;13.35;;;;;;;20.83;26.35;99456.13;5112880;28;20168;-77
2022/03/29 11:26:29;;;;;;;22.15;12.07;;;;;;;20.90;26.65;99446.28;5112825;28;20052;-78
2022/03/29 11:28:59;;;;;;;19.25;11.90;;;;;;;21.04;26.64;99447.41;5112603;28;20040;-77
2022/03/29 11:31:36;;;;;;;21.30;12.85;;;;;;;21.15;26.01;99445.13;5113752;28;20063;-77
2022/03/29 11:34:05;;;;;;;23.38;13.73;;;;;;;21.15;25.14;99445.13;5116661;28;20070;-78
2022/03/29 11:36:36;;;;;;;22.90;11.63;;;;;;;21.08;24.38;99427.88;5116035;28;20093;-77
2022/03/29 11:39:26;;;;;;;23.65;12.48;;;;;;;20.97;24.12;99431.00;5116173;28;20555;-77
2022/03/29 11:41:56;;;;;;;24.10;12.55;;;;;;;20.71;24.37;99427.75;5116222;28;20448;-77
2022/03/29 11:44:27;;;;;;;23.15;13.65;;;;;;;20.89;24.33;99417.50;5116465;28;20555;-77
2022/03/29 11:46:57;;;;;;;24.95;14.25;;;;;;;21.08;24.36;99419.75;5115894;28;20075;-77